Latest Weather Observations for Warruwi

IDD60801

Issued at 1:35 pm CST Sunday 31 August 2014 (issued every 30 minutes, with the page automatically refreshed every 10 minutes)

About weather observations | Map of weather stations | Latest weather observations for NT | Other Formats
Station Details ID: 014401 Name: WARRUWI AIRPORT Lat: -11.65 Lon: 133.38 Height: 19.2 m
Data from the previous 72 hours. | See also: Recent months at Warruwi
Date/Time
CST
Temp
°C
App
Temp
°C
Dew
Point
Rel
Hum
%
Delta-T
°C
Wind Press
QNH
hPa
Press
MSL
hPa
Rain
since 9 am
mm
Dir
 
Spd
km/h
Gust
km/h
Spd
kts
Gust
kts
31/01:30pm 28.9 27.2 14.7 42 8.6 E 17 24 9 13 1011.6 1011.5 0.0
31/01:00pm 28.4 26.8 15.0 44 8.2 E 17 24 9 13 1012.2 1012.1 0.0
31/12:30pm 27.6 26.3 14.9 45 7.7 E 15 24 8 13 1012.7 1012.6 0.0
31/12:00pm 27.3 25.6 14.7 46 7.6 E 17 24 9 13 1013.3 1013.2 0.0
31/11:30am 27.2 26.3 14.9 47 7.4 E 13 19 7 10 1013.7 1013.6 0.0
31/11:00am 27.6 25.9 13.5 41 8.3 ESE 15 20 8 11 1014.2 1014.1 0.0
31/10:30am 26.8 26.1 16.4 53 6.4 SE 15 20 8 11 1014.7 1014.6 0.0
31/10:00am 25.8 25.9 17.4 59 5.3 ESE 13 19 7 10 1015.1 1015.0 0.0
31/09:30am 24.9 25.4 17.4 63 4.7 SE 11 17 6 9 1015.2 1015.1 0.0
31/09:00am 24.6 24.8 16.8 62 4.8 SE 11 15 6 8 1015.1 1015.0 0.0
31/08:30am 23.3 23.2 16.1 64 4.4 SE 11 17 6 9 1014.8 1014.7 0.0
31/08:00am 22.8 23.1 15.9 65 4.2 SE 9 11 5 6 1014.7 1014.6 0.0
31/07:30am 21.9 22.4 15.5 67 3.8 SE 7 11 4 6 1014.4 1014.3 0.0
31/07:00am 21.1 21.5 16.3 74 2.9 SE 9 13 5 7 1014.0 1013.9 0.0
31/06:30am 20.5 21.6 16.5 78 2.4 ESE 6 9 3 5 1013.8 1013.7 0.0
31/06:00am 20.8 21.8 16.8 78 2.4 SE 7 9 4 5 1013.5 1013.4 0.0
31/05:30am 20.8 21.8 16.8 78 2.4 ESE 7 11 4 6 1013.2 1013.1 0.0
31/05:00am 20.7 22.1 17.7 83 1.8 ESE 7 11 4 6 1013.1 1013.0 0.0
31/04:30am 20.9 22.5 18.3 85 1.6 SE 7 9 4 5 1013.2 1013.1 0.0
31/04:00am 21.1 23.2 19.0 88 1.3 SSE 6 7 3 4 1013.4 1013.3 0.0
31/03:30am 22.2 24.1 18.6 80 2.3 SSE 6 9 3 5 1013.3 1013.2 0.0
31/03:00am 23.1 23.1 17.3 70 3.6 ESE 13 15 7 8 1013.3 1013.2 0.0
31/02:30am 23.4 24.3 18.5 74 3.1 E 11 17 6 9 1013.3 1013.2 0.0
31/02:00am 23.7 24.3 18.6 73 3.2 E 13 20 7 11 1013.4 1013.3 0.0
31/01:30am 23.6 24.8 19.9 80 2.4 E 13 19 7 10 1013.6 1013.5 0.0
31/01:00am 23.8 24.8 20.3 81 2.3 E 15 20 8 11 1013.7 1013.6 0.0
31/12:30am 23.8 24.5 20.5 82 2.1 E 17 24 9 13 1014.0 1013.9 0.0
31/12:00am 23.7 25.3 20.8 84 1.9 E 13 20 7 11 1014.2 1014.1 0.0
 
Date/Time
CST
Temp
°C
App
Temp
°C
Dew
Point
Rel
Hum
%
Delta-T
°C
Wind Press
QNH
hPa
Press
MSL
hPa
Rain
since 9 am
mm
Dir
 
Spd
km/h
Gust
km/h
Spd
kts
Gust
kts
30/11:30pm 23.6 25.6 20.7 84 1.9 ESE 11 17 6 9 1014.3 1014.2 0.0
30/11:00pm 23.9 25.4 20.6 82 2.2 E 13 20 7 11 1014.1 1014.0 0.0
30/10:30pm 23.7 26.1 20.8 84 1.9 E 9 13 5 7 1013.8 1013.7 0.0
30/10:00pm 23.7 26.1 20.8 84 1.9 E 9 13 5 7 1013.7 1013.6 0.0
30/09:30pm 23.6 26.5 20.7 84 1.9 E 6 9 3 5 1013.5 1013.4 0.0
30/09:00pm 23.6 26.3 20.7 84 1.9 ENE 7 11 4 6 1013.4 1013.3 0.0
30/08:30pm 23.4 26.1 20.3 83 2.0 E 6 9 3 5 1013.1 1013.0 0.0
30/08:00pm 23.6 26.2 20.1 81 2.3 ENE 6 9 3 5 1012.8 1012.7 0.0
30/07:30pm 23.8 26.3 19.9 79 2.5 ENE 6 9 3 5 1012.5 1012.4 0.0
30/07:00pm 24.1 26.6 19.8 77 2.8 ENE 6 13 3 7 1012.4 1012.3 0.0
30/06:30pm 24.4 26.0 19.2 73 3.3 ENE 9 15 5 8 1012.0 1011.9 0.0
30/06:00pm 25.2 25.9 18.9 68 4.0 ENE 13 20 7 11 1011.6 1011.5 0.0
30/05:30pm 26.0 26.4 18.2 62 4.9 ENE 13 22 7 12 1011.3 1011.2 0.0
30/05:00pm 26.5 26.3 17.6 58 5.6 ENE 15 24 8 13 1011.3 1011.2 0.0
30/04:30pm 27.8 26.4 14.4 43 8.1 ENE 15 24 8 13 1011.2 1011.1 0.0
30/04:00pm 28.3 27.3 14.5 43 8.3 ENE 13 24 7 13 1011.2 1011.1 0.0
30/03:30pm 28.5 25.8 11.6 35 9.7 ENE 17 26 9 14 1011.3 1011.2 0.0
30/03:00pm 29.2 26.4 9.9 30 10.9 ENE 15 26 8 14 1011.4 1011.3 0.0
30/02:30pm 29.2 26.6 10.8 32 10.5 ENE 15 26 8 14 1011.8 1011.7 0.0
30/02:00pm 29.0 25.7 9.7 30 10.8 E 17 24 9 13 1012.3 1012.2 0.0
30/01:30pm 29.2 25.5 9.3 29 11.1 E 19 28 10 15 1012.8 1012.7 0.0
30/01:00pm 28.5 25.0 10.2 32 10.3 E 19 26 10 14 1013.5 1013.4 0.0
30/12:30pm 27.8 26.3 14.1 43 8.2 E 15 20 8 11 1014.2 1014.1 0.0
30/12:00pm 26.7 25.7 14.5 47 7.3 E 13 20 7 11 1014.8 1014.7 0.0
30/11:30am 26.9 25.9 14.6 46 7.4 E 13 19 7 10 1015.3 1015.2 0.0
30/11:00am 26.8 25.4 15.5 50 6.9 ESE 17 24 9 13 1015.8 1015.7 0.0
30/10:30am 26.3 25.9 17.1 57 5.7 ESE 15 20 8 11 1016.1 1016.0 0.0
30/10:00am 25.3 24.7 16.7 59 5.3 ESE 15 26 8 14 1016.2 1016.1 0.0
30/09:30am 24.3 23.5 16.0 60 5.0 ESE 15 22 8 12 1016.2 1016.1 0.0
30/09:00am 23.6 22.7 14.9 58 5.2 SE 13 20 7 11 1016.3 1016.2 0.0
30/08:30am 23.6 22.9 14.3 56 5.5 SSE 11 19 6 10 1016.1 1016.0 0.0
30/08:00am 23.2 22.7 13.9 56 5.4 SE 9 13 5 7 1015.8 1015.7 0.0
30/07:30am 22.2 22.4 14.6 62 4.5 SE 7 11 4 6 1015.4 1015.3 0.0
30/07:00am 20.2 20.8 15.2 73 2.9 SSE 6 7 3 4 1015.2 1015.1 0.0
30/06:30am 19.7 20.5 15.8 78 2.3 SSE 6 9 3 5 1014.9 1014.8 0.0
30/06:00am 18.4 20.2 15.6 84 1.6 CALM 0 4 0 2 1014.6 1014.5 0.0
30/05:30am 18.9 20.3 16.5 86 1.4 SE 4 6 2 3 1014.2 1014.1 0.0
30/05:00am 19.7 21.3 17.8 89 1.2 SE 6 7 3 4 1014.0 1013.9 0.0
30/04:30am 20.3 22.8 19.0 92 0.8 S 4 6 2 3 1013.8 1013.7 0.0
30/04:00am 20.4 22.8 18.7 90 1.1 SSE 4 6 2 3 1013.9 1013.8 0.0
30/03:30am 20.8 23.1 19.5 92 0.8 SSE 6 7 3 4 1013.8 1013.7 0.0
30/03:00am 20.5 23.4 19.0 91 0.9 SE 2 4 1 2 1014.1 1014.0 0.0
30/02:30am 20.5 23.7 18.8 90 1.1 CALM 0 0 0 0 1014.2 1014.1 0.0
30/02:00am 20.8 24.0 18.9 89 1.2 CALM 0 0 0 0 1014.3 1014.2 0.0
30/01:30am 21.0 24.2 18.9 88 1.3 CALM 0 2 0 1 1014.5 1014.4 0.0
30/01:00am 21.0 23.6 18.4 85 1.6 SE 2 4 1 2 1014.8 1014.7 0.0
30/12:30am 21.4 23.8 18.8 85 1.6 SSE 4 6 2 3 1014.8 1014.7 0.0
30/12:00am 21.6 24.2 19.2 86 1.5 SSE 4 6 2 3 1014.8 1014.7 0.0
 
Date/Time
CST
Temp
°C
App
Temp
°C
Dew
Point
Rel
Hum
%
Delta-T
°C
Wind Press
QNH
hPa
Press
MSL
hPa
Rain
since 9 am
mm
Dir
 
Spd
km/h
Gust
km/h
Spd
kts
Gust
kts
29/11:30pm 21.4 24.6 18.8 85 1.6 CALM 0 4 0 2 1014.8 1014.7 0.0
29/11:00pm 21.5 24.4 18.3 82 2.0 CALM 0 0 0 0 1014.7 1014.6 0.0
29/10:30pm 22.1 25.0 18.3 79 2.4 CALM 0 0 0 0 1014.4 1014.3 0.0
29/10:00pm 23.0 25.4 18.7 77 2.7 E 4 6 2 3 1014.3 1014.2 0.0
29/09:30pm 23.1 25.1 18.8 77 2.7 ENE 6 9 3 5 1014.0 1013.9 0.0
29/09:00pm 23.3 25.3 18.8 76 2.8 ENE 6 9 3 5 1013.9 1013.8 0.0
29/08:30pm 23.5 25.3 18.4 73 3.2 ENE 6 9 3 5 1013.5 1013.4 0.0
29/08:00pm 23.7 25.3 17.9 70 3.6 E 6 9 3 5 1013.3 1013.2 0.0
29/07:30pm 23.9 24.8 16.7 64 4.4 E 7 11 4 6 1013.4 1013.3 0.0
29/07:00pm 24.4 24.9 15.6 58 5.3 ENE 7 13 4 7 1013.2 1013.1 0.0
29/06:30pm 25.1 25.1 14.3 51 6.4 ENE 7 13 4 7 1012.8 1012.7 0.0
29/06:00pm 26.0 25.2 12.8 44 7.7 ENE 9 19 5 10 1012.6 1012.5 0.0
29/05:30pm 26.9 25.3 11.4 38 8.8 ENE 11 20 6 11 1012.4 1012.3 0.0
29/05:00pm 28.3 26.8 10.5 33 10.1 ENE 9 17 5 9 1012.3 1012.2 0.0
29/04:30pm 28.5 25.9 9.2 30 10.7 ENE 13 20 7 11 1012.1 1012.0 0.0
29/04:00pm 28.3 25.0 9.6 31 10.4 ENE 17 26 9 14 1012.3 1012.2 0.0
29/03:30pm 27.9 25.1 10.1 33 10.0 E 15 22 8 12 1012.5 1012.4 0.0
29/03:00pm 28.7 25.5 9.9 31 10.6 E 17 24 9 13 1012.7 1012.6 0.0
29/02:30pm 28.4 24.6 9.2 30 10.6 E 19 28 10 15 1012.8 1012.7 0.0
29/02:00pm 28.6 25.0 9.8 31 10.5 E 19 28 10 15 1013.2 1013.1 0.0
29/01:30pm 28.4 25.1 11.0 34 9.9 E 19 26 10 14 1013.6 1013.5 0.0
29/01:00pm 27.8 25.1 11.8 37 9.2 E 17 24 9 13 1014.1 1014.0 0.0
29/12:30pm 27.8 24.9 12.2 38 9.0 E 19 24 10 13 1014.4 1014.3 0.0
29/12:00pm 28.3 24.6 9.6 31 10.4 E 19 32 10 17 1014.6 1014.5 0.0
29/11:30am 27.3 24.6 10.5 35 9.4 E 15 24 8 13 1015.2 1015.1 0.0
29/11:00am 27.4 24.2 11.4 37 9.1 E 19 28 10 15 1015.6 1015.5 0.0
29/10:30am 27.1 23.6 10.3 35 9.4 ESE 19 24 10 13 1016.0 1015.9 0.0
29/10:00am 26.2 22.5 10.0 36 9.0 ESE 20 28 11 15 1016.0 1015.9 0.0
29/09:30am 24.8 21.3 10.3 40 8.0 ESE 19 26 10 14 1015.9 1015.8 0.0
29/09:00am 24.8 21.6 11.4 43 7.6 ESE 19 28 10 15 1015.9 1015.8 0.0
29/08:30am 23.4 21.4 12.7 51 6.1 SE 15 24 8 13 1015.8 1015.7 0.0
29/08:00am 22.3 20.2 13.6 58 5.0 SE 17 20 9 11 1015.6 1015.5 0.0
29/07:30am 21.6 20.2 14.5 64 4.2 ESE 15 24 8 13 1015.5 1015.4 0.0
29/07:00am 20.5 19.4 14.2 67 3.7 ESE 13 17 7 9 1015.2 1015.1 0.0
29/06:30am 20.6 18.6 14.0 66 3.8 ESE 17 22 9 12 1015.0 1014.9 0.0
29/06:00am 21.0 19.0 13.9 64 4.1 ESE 17 22 9 12 1014.8 1014.7 0.0
29/05:30am 21.3 19.1 13.2 60 4.6 ESE 17 22 9 12 1014.5 1014.4 0.0
29/05:00am 21.5 19.3 13.2 59 4.8 ESE 17 24 9 13 1014.2 1014.1 0.0
29/04:30am 21.8 19.5 12.9 57 5.1 ESE 17 24 9 13 1014.2 1014.1 0.0
29/04:00am 22.1 19.7 12.6 55 5.4 ESE 17 24 9 13 1014.0 1013.9 0.0
29/03:30am 22.4 19.5 12.4 53 5.7 ESE 19 26 10 14 1013.8 1013.7 0.0
29/03:00am 22.6 19.7 12.3 52 5.8 ESE 19 24 10 13 1013.7 1013.6 0.0
29/02:30am 22.8 20.4 12.7 53 5.8 ESE 17 24 9 13 1013.7 1013.6 0.0
29/02:00am 22.8 20.5 13.0 54 5.6 ESE 17 22 9 12 1013.7 1013.6 0.0
29/01:30am 23.3 20.5 12.6 51 6.1 ESE 19 28 10 15 1013.9 1013.8 0.0
29/01:00am 23.6 20.0 12.0 48 6.6 ESE 22 30 12 16 1014.1 1014.0 0.0
29/12:30am 23.7 20.7 12.0 48 6.6 ESE 19 28 10 15 1014.2 1014.1 0.0
29/12:00am 24.4 21.4 12.4 47 6.9 ESE 20 28 11 15 1014.4 1014.3 0.0
 
Date/Time
CST
Temp
°C
App
Temp
°C
Dew
Point
Rel
Hum
%
Delta-T
°C
Wind Press
QNH
hPa
Press
MSL
hPa
Rain
since 9 am
mm
Dir
 
Spd
km/h
Gust
km/h
Spd
kts
Gust
kts
28/11:30pm 24.6 22.2 14.4 53 6.0 ESE 20 30 11 16 1014.3 1014.2 0.0
28/11:00pm 24.6 23.7 18.3 68 4.0 E 20 28 11 15 1014.3 1014.2 0.0
28/10:30pm 24.5 24.6 19.1 72 3.4 E 17 24 9 13 1014.4 1014.3 0.0
28/10:00pm 24.5 25.3 19.1 72 3.4 E 13 20 7 11 1014.2 1014.1 0.0
28/09:30pm 24.4 25.9 18.8 71 3.6 E 9 17 5 9 1014.3 1014.2 0.0
28/09:00pm 24.4 25.6 19.0 72 3.4 E 11 17 6 9 1014.3 1014.2 0.0
28/08:30pm 24.4 25.9 19.0 72 3.4 E 9 13 5 7 1014.0 1013.9 0.0
28/08:00pm 24.5 25.9 18.7 70 3.7 E 9 13 5 7 1013.8 1013.7 0.0
28/07:30pm 24.5 25.8 18.4 69 3.9 E 9 13 5 7 1013.4 1013.3 0.0
28/07:00pm 24.6 25.4 17.3 64 4.5 E 9 17 5 9 1013.1 1013.0 0.0
28/06:30pm 25.1 25.2 16.5 59 5.3 E 11 19 6 10 1012.8 1012.7 0.0
28/06:00pm 25.7 24.7 15.7 54 6.1 ENE 15 24 8 13 1012.4 1012.3 0.0
28/05:30pm 26.5 25.7 15.2 49 6.8 ENE 13 24 7 13 1012.4 1012.3 0.0
28/05:00pm 27.3 26.2 14.3 45 7.8 ENE 13 24 7 13 1012.2 1012.1 0.0
28/04:30pm 27.8 25.7 13.7 42 8.4 ENE 17 24 9 13 1012.1 1012.0 0.0
28/04:00pm 28.0 26.0 13.9 42 8.4 ENE 17 26 9 14 1012.1 1012.0 0.0
28/03:30pm 28.2 25.8 12.5 37 9.2 E 17 26 9 14 1012.0 1011.9 0.0
28/03:00pm 28.3 26.1 13.4 40 8.8 ENE 17 30 9 16 1012.1 1012.0 0.0
28/02:30pm 28.1 25.4 13.6 41 8.6 E 20 30 11 16 1012.5 1012.4 0.0
28/02:00pm 28.5 26.8 14.7 43 8.4 E 17 26 9 14 1012.8 1012.7 0.0

Other Formats:

Comma delimited format used in spreadsheet applications
http://www.bom.gov.au/fwo/IDD60801/IDD60801.94139.axf

JavaScript Object Notation format (JSON) in row-major order
http://www.bom.gov.au/fwo/IDD60801/IDD60801.94139.json